createdAt,value
2019-03-29T00:00:34.330Z,100239.33
2019-03-29T00:03:01.546Z,100230.59
2019-03-29T00:05:28.602Z,100231.02
2019-03-29T00:07:55.641Z,100231.89
2019-03-29T00:10:22.736Z,100238.88
2019-03-29T00:12:49.770Z,100237.99
2019-03-29T00:15:16.884Z,100239.76
2019-03-29T00:17:44.165Z,100239.75
2019-03-29T00:20:11.671Z,100239.75
2019-03-29T00:22:38.721Z,100244.98
2019-03-29T00:25:07.177Z,100248.03
2019-03-29T00:27:35.326Z,100253.72
2019-03-29T00:30:03.423Z,100247.60
2019-03-29T00:32:31.913Z,100247.16
2019-03-29T00:34:59.421Z,100243.66
2019-03-29T00:37:26.446Z,100242.33
2019-03-29T00:39:53.534Z,100243.59
2019-03-29T00:42:21.653Z,100239.20
2019-03-29T00:44:49.533Z,100243.05
2019-03-29T00:47:17.560Z,100234.64
2019-03-29T00:49:44.614Z,100243.71
2019-03-29T00:52:14.755Z,100241.03
2019-03-29T00:54:43.442Z,100233.14
2019-03-29T00:57:13.564Z,100235.77
2019-03-29T00:59:45.016Z,100232.72
2019-03-29T01:02:12.198Z,100230.12
2019-03-29T01:04:39.227Z,100230.67
2019-03-29T01:07:06.325Z,100228.94
2019-03-29T01:09:33.845Z,100227.63
2019-03-29T01:12:03.447Z,100218.48
2019-03-29T01:14:30.905Z,100227.19
2019-03-29T01:16:58.035Z,100231.55
2019-03-29T01:19:25.098Z,100223.69
2019-03-29T01:21:55.309Z,100223.67
2019-03-29T01:24:24.808Z,100228.93
2019-03-29T01:26:52.383Z,100230.25
2019-03-29T01:29:22.870Z,100229.38
2019-03-29T01:31:49.940Z,100223.26
2019-03-29T01:34:17.136Z,100225.44
2019-03-29T01:36:44.441Z,100223.26
2019-03-29T01:39:11.524Z,100223.70
2019-03-29T01:41:39.095Z,100221.08
2019-03-29T01:44:06.606Z,100218.46
2019-03-29T01:46:33.731Z,100221.08
2019-03-29T01:49:04.243Z,100221.08
2019-03-29T01:51:31.327Z,100216.27
2019-03-29T01:53:58.637Z,100215.40
2019-03-29T01:56:25.667Z,100212.33
2019-03-29T01:59:00.805Z,100211.45
2019-03-29T02:01:28.426Z,100213.58
2019-03-29T02:03:56.178Z,100202.61
2019-03-29T02:06:23.376Z,100200.41
2019-03-29T02:08:50.920Z,100202.95
2019-03-29T02:11:18.074Z,100194.19
2019-03-29T02:13:45.453Z,100199.81
2019-03-29T02:16:12.695Z,100196.30
2019-03-29T02:18:39.987Z,100192.77
2019-03-29T02:21:07.160Z,100192.28
2019-03-29T02:23:34.224Z,100190.95
2019-03-29T02:26:01.353Z,100184.41
2019-03-29T02:28:29.085Z,100187.04
2019-03-29T02:30:56.545Z,100185.78
2019-03-29T02:33:23.666Z,100190.57
2019-03-29T02:35:51.024Z,100190.97
2019-03-29T02:38:18.159Z,100183.59
2019-03-29T02:40:45.262Z,100184.47
2019-03-29T02:43:17.799Z,100182.73
2019-03-29T02:45:44.891Z,100181.80
2019-03-29T02:48:16.699Z,100183.07
2019-03-29T02:50:44.403Z,100178.06
2019-03-29T02:53:14.370Z,100182.31
2019-03-29T02:55:43.885Z,100190.99
2019-03-29T02:58:11.050Z,100173.02
2019-03-29T03:00:38.087Z,100177.80
2019-03-29T03:03:07.627Z,100174.77
2019-03-29T03:05:34.854Z,100173.05
2019-03-29T03:08:01.998Z,100170.48
2019-03-29T03:10:29.203Z,100169.19
2019-03-29T03:12:56.574Z,100168.74
2019-03-29T03:15:23.595Z,100167.02
2019-03-29T03:17:50.807Z,100174.01
2019-03-29T03:20:18.327Z,100170.53
2019-03-29T03:22:46.503Z,100169.28
2019-03-29T03:25:13.658Z,100168.87
2019-03-29T03:27:40.728Z,100164.08
2019-03-29T03:30:08.399Z,100172.37
2019-03-29T03:32:35.487Z,100162.24
2019-03-29T03:35:03.402Z,100163.44
2019-03-29T03:37:32.761Z,100165.13
2019-03-29T03:39:59.964Z,100164.17
2019-03-29T03:42:27.218Z,100160.59
2019-03-29T03:44:54.324Z,100160.56
2019-03-29T03:47:21.768Z,100163.59
2019-03-29T03:49:48.783Z,100163.17
2019-03-29T03:52:16.408Z,100160.56
2019-03-29T03:54:43.833Z,100159.70
2019-03-29T03:57:13.336Z,100163.21
2019-03-29T03:59:41.015Z,100161.97
2019-03-29T04:02:08.078Z,100161.55
2019-03-29T04:04:37.647Z,100158.95
2019-03-29T04:07:04.315Z,100163.38
2019-03-29T04:09:48.046Z,100156.83
2019-03-29T04:12:00.825Z,100152.92
2019-03-29T04:14:28.211Z,100156.42
2019-03-29T04:16:55.287Z,100149.88
2019-03-29T04:19:22.308Z,100151.59
2019-03-29T04:21:51.663Z,100135.84
2019-03-29T04:24:18.747Z,100141.58
2019-03-29T04:26:45.911Z,100140.71
2019-03-29T04:29:13.334Z,100141.14
2019-03-29T04:31:40.807Z,100140.71
2019-03-29T04:34:10.775Z,100140.71
2019-03-29T04:36:38.822Z,100139.85
2019-03-29T04:39:06.061Z,100134.17
2019-03-29T04:41:33.570Z,100136.79
2019-03-29T04:44:00.676Z,100135.03
2019-03-29T04:46:27.829Z,100136.36
2019-03-29T04:48:54.917Z,100139.85
2019-03-29T04:51:22.013Z,100133.75
2019-03-29T04:53:49.441Z,100135.06
2019-03-29T04:56:16.646Z,100139.86
2019-03-29T04:58:43.821Z,100134.62
2019-03-29T05:01:13.321Z,100133.75
2019-03-29T05:03:40.491Z,100132.86
2019-03-29T05:06:09.071Z,100131.05
2019-03-29T05:08:36.197Z,100134.16
2019-03-29T05:11:03.873Z,100133.66
2019-03-29T05:13:32.982Z,100130.56
2019-03-29T05:16:00.785Z,100134.42
2019-03-29T05:18:27.830Z,100135.70
2019-03-29T05:20:54.970Z,100131.33
2019-03-29T05:23:22.226Z,100134.84
2019-03-29T05:25:49.387Z,100130.05
2019-03-29T05:28:17.496Z,100133.18
2019-03-29T05:30:44.595Z,100138.02
2019-03-29T05:33:11.806Z,100145.95
2019-03-29T05:35:40.961Z,100142.95
2019-03-29T05:38:08.161Z,100143.02
2019-03-29T05:40:35.510Z,100145.67
2019-03-29T05:43:02.908Z,100147.91
2019-03-29T05:45:30.067Z,100146.20
2019-03-29T05:47:59.543Z,100149.72
2019-03-29T05:50:26.771Z,100146.28
2019-03-29T05:52:54.098Z,100148.50
2019-03-29T05:55:32.080Z,100151.62
2019-03-29T05:57:53.056Z,100158.64
2019-03-29T06:00:20.968Z,100153.04
2019-03-29T06:02:48.086Z,100157.89
2019-03-29T06:05:17.465Z,100153.95
2019-03-29T06:07:44.845Z,100162.26
2019-03-29T06:10:12.209Z,100160.50
2019-03-29T06:12:39.336Z,100160.50
2019-03-29T06:15:07.754Z,100165.76
2019-03-29T06:17:47.608Z,100164.88
2019-03-29T06:20:05.278Z,100168.86
2019-03-29T06:22:32.474Z,100166.70
2019-03-29T06:24:59.598Z,100166.34
2019-03-29T06:27:28.919Z,100163.28
2019-03-29T06:29:59.492Z,100165.98
2019-03-29T06:32:26.706Z,100165.53
2019-03-29T06:34:54.235Z,100169.46
2019-03-29T06:37:22.251Z,100166.05
2019-03-29T06:39:50.212Z,100167.80
2019-03-29T06:42:17.433Z,100166.50
2019-03-29T06:44:44.734Z,100167.45
2019-03-29T06:47:16.675Z,100177.98
2019-03-29T06:49:43.815Z,100172.35
2019-03-29T06:52:12.170Z,100170.62
2019-03-29T06:54:39.408Z,100172.37
2019-03-29T06:57:08.632Z,100170.27
2019-03-29T06:59:36.471Z,100164.17
2019-03-29T07:02:06.012Z,100164.23
2019-03-29T07:04:33.526Z,100165.63
2019-03-29T07:07:00.752Z,100165.28
2019-03-29T07:09:30.048Z,100162.30
2019-03-29T07:11:57.639Z,100156.70
2019-03-29T07:14:27.288Z,100161.97
2019-03-29T07:16:54.945Z,100158.52
2019-03-29T07:19:22.298Z,100155.05
2019-03-29T07:21:49.478Z,100159.47
2019-03-29T07:24:16.811Z,100160.80
2019-03-29T07:26:43.967Z,100162.61
2019-03-29T07:29:11.840Z,100154.35
2019-03-29T07:31:39.010Z,100154.31
2019-03-29T07:34:06.250Z,100164.44
2019-03-29T07:36:35.580Z,100151.38
2019-03-29T07:39:04.971Z,100154.50
2019-03-29T07:41:35.023Z,100158.93
2019-03-29T07:44:02.957Z,100156.79
2019-03-29T07:46:33.179Z,100156.41
2019-03-29T07:49:06.214Z,100157.72
2019-03-29T07:51:37.711Z,100158.64
2019-03-29T07:54:09.967Z,100161.31
2019-03-29T07:56:37.689Z,100150.86
2019-03-29T07:59:04.958Z,100144.80
2019-03-29T08:01:38.393Z,100152.31
2019-03-29T08:04:05.663Z,100141.40
2019-03-29T08:06:36.443Z,100144.94
2019-03-29T08:09:05.740Z,100142.77
2019-03-29T08:11:45.446Z,100141.91
2019-03-29T08:14:04.227Z,100141.49
2019-03-29T08:16:31.286Z,100141.94
2019-03-29T08:18:58.511Z,100139.78
2019-03-29T08:21:25.631Z,100138.50
2019-03-29T08:23:53.964Z,100137.18
2019-03-29T08:26:21.166Z,100139.81
2019-03-29T08:28:50.425Z,100130.59
2019-03-29T08:31:27.711Z,100132.78
2019-03-29T08:33:54.939Z,100143.33
2019-03-29T08:36:23.174Z,100138.95
2019-03-29T08:38:50.604Z,100140.70
2019-03-29T08:41:17.822Z,100146.83
2019-03-29T08:43:45.404Z,100138.92
2019-03-29T08:46:12.775Z,100131.47
2019-03-29T08:48:40.142Z,100129.72
2019-03-29T08:51:07.453Z,100125.75
2019-03-29T08:53:34.797Z,100128.41
2019-03-29T08:56:01.991Z,100113.91
2019-03-29T08:58:29.233Z,100116.10
2019-03-29T09:00:56.319Z,100117.81
2019-03-29T09:03:23.391Z,100117.41
2019-03-29T09:05:50.622Z,100117.81
2019-03-29T09:08:18.110Z,100115.16
2019-03-29T09:10:45.337Z,100116.52
2019-03-29T09:13:12.510Z,100114.30
2019-03-29T09:15:41.409Z,100111.68
2019-03-29T09:18:08.755Z,100108.60
2019-03-29T09:20:37.959Z,100110.80
2019-03-29T09:23:06.188Z,100110.36
2019-03-29T09:25:33.545Z,100116.08
2019-03-29T09:28:01.492Z,100116.49
2019-03-29T09:30:28.839Z,100109.05
2019-03-29T09:32:56.281Z,100104.66
2019-03-29T09:35:23.567Z,100103.73
2019-03-29T09:37:50.750Z,100100.28
2019-03-29T09:40:18.156Z,100100.67
2019-03-29T09:42:45.479Z,100103.73
2019-03-29T09:45:13.557Z,100095.41
2019-03-29T09:47:41.110Z,100105.50
2019-03-29T09:50:10.617Z,100099.80
2019-03-29T09:52:38.191Z,100101.52
2019-03-29T09:55:08.448Z,100093.66
2019-03-29T09:57:41.425Z,100099.28
2019-03-29T10:00:23.062Z,100088.20
2019-03-29T10:02:50.923Z,100084.29
2019-03-29T10:05:20.449Z,100084.23
2019-03-29T10:07:49.441Z,100088.16
2019-03-29T10:10:17.145Z,100089.03
2019-03-29T10:12:48.325Z,100088.13
2019-03-29T10:15:17.658Z,100083.19
2019-03-29T10:17:57.463Z,100086.59
2019-03-29T10:20:27.202Z,100075.14
2019-03-29T10:22:56.767Z,100071.75
2019-03-29T10:25:24.983Z,100072.13
2019-03-29T10:27:52.375Z,100062.38
2019-03-29T10:30:36.428Z,100068.61
2019-03-29T10:33:05.442Z,100066.90
2019-03-29T10:35:34.166Z,100067.28
2019-03-29T10:38:01.677Z,100064.16
2019-03-29T10:40:33.571Z,100068.97
2019-03-29T10:43:01.392Z,100064.12
2019-03-29T10:45:40.337Z,100064.33
2019-03-29T10:48:17.849Z,100052.91
2019-03-29T10:50:45.697Z,100047.30
2019-03-29T10:53:13.656Z,100046.84
2019-03-29T10:55:45.434Z,100042.23
2019-03-29T10:58:14.285Z,100033.32
2019-03-29T11:00:42.417Z,100036.28
2019-03-29T11:03:21.308Z,100032.33
2019-03-29T11:05:49.434Z,100032.73
2019-03-29T11:08:21.496Z,100032.75
2019-03-29T11:10:48.691Z,100033.41
2019-03-29T11:13:16.827Z,100028.34
2019-03-29T11:15:44.452Z,100026.55
2019-03-29T11:18:17.190Z,100021.42
2019-03-29T11:20:46.896Z,100025.25
2019-03-29T11:23:18.313Z,100020.20
2019-03-29T11:25:49.927Z,100018.80
2019-03-29T11:28:17.207Z,100021.97
2019-03-29T11:30:44.409Z,100011.70
2019-03-29T11:33:11.715Z,100017.47
2019-03-29T11:35:39.754Z,100009.81
2019-03-29T11:38:07.103Z,100010.21
2019-03-29T11:40:34.300Z,100001.67
2019-03-29T11:43:02.050Z,99997.28
2019-03-29T11:45:29.803Z,99994.74
2019-03-29T11:48:08.222Z,99986.18
2019-03-29T11:50:29.872Z,99977.52
2019-03-29T11:52:56.974Z,99970.59
2019-03-29T11:55:24.193Z,99961.58
2019-03-29T11:57:56.031Z,99961.58
2019-03-29T12:00:35.038Z,99955.52
2019-03-29T12:03:02.572Z,99954.37
2019-03-29T12:05:30.095Z,99954.78
2019-03-29T12:07:59.729Z,99948.41
2019-03-29T12:10:27.112Z,99944.12
2019-03-29T12:12:54.432Z,99942.55
2019-03-29T12:15:21.627Z,99930.64
2019-03-29T12:17:49.003Z,99935.61
2019-03-29T12:20:16.185Z,99933.29
2019-03-29T12:22:44.605Z,99930.81
2019-03-29T12:25:12.100Z,99926.47
2019-03-29T12:27:39.273Z,99917.95
2019-03-29T12:30:08.160Z,99911.84
2019-03-29T12:32:37.115Z,99914.61
2019-03-29T12:35:04.996Z,99908.40
2019-03-29T12:37:32.215Z,99908.86
2019-03-29T12:39:59.583Z,99907.19
2019-03-29T12:42:26.891Z,99903.73
2019-03-29T12:44:54.110Z,99900.94
2019-03-29T12:47:21.381Z,99887.56
2019-03-29T12:49:49.324Z,99885.98
2019-03-29T12:52:17.162Z,99881.33
2019-03-29T12:54:48.916Z,99875.49
2019-03-29T12:57:16.703Z,99871.77
2019-03-29T12:59:44.558Z,99872.13
2019-03-29T13:02:12.194Z,99869.64
2019-03-29T13:04:42.523Z,99866.31
2019-03-29T13:07:12.031Z,99865.73
2019-03-29T13:09:40.266Z,99858.28
2019-03-29T13:12:16.409Z,99858.28
2019-03-29T13:14:46.276Z,99852.98
2019-03-29T13:17:13.743Z,99848.33
2019-03-29T13:19:41.150Z,99834.86
2019-03-29T13:22:10.932Z,99834.86
2019-03-29T13:24:38.321Z,99844.38
2019-03-29T13:27:05.682Z,99837.31
2019-03-29T13:29:33.809Z,99837.31
2019-03-29T13:32:04.442Z,99833.50
2019-03-29T13:34:32.600Z,99820.50
2019-03-29T13:37:00.882Z,99820.50
2019-03-29T13:39:28.096Z,99810.63
2019-03-29T13:41:55.444Z,99811.72
2019-03-29T13:44:26.625Z,99799.98
2019-03-29T13:46:52.389Z,99799.98
2019-03-29T13:49:21.240Z,99799.41
2019-03-29T13:51:48.701Z,99789.51
2019-03-29T13:54:16.137Z,99793.34
2019-03-29T13:56:43.679Z,99787.35
2019-03-29T13:59:11.841Z,99789.38
2019-03-29T14:01:39.680Z,99786.16
2019-03-29T14:04:08.847Z,99783.17
2019-03-29T14:06:36.431Z,99786.14
2019-03-29T14:09:05.925Z,99775.27
2019-03-29T14:11:33.483Z,99768.83
2019-03-29T14:14:01.425Z,99765.63
2019-03-29T14:16:28.771Z,99769.29
2019-03-29T14:18:56.474Z,99758.34
2019-03-29T14:21:24.607Z,99752.00
2019-03-29T14:23:52.114Z,99753.27
2019-03-29T14:26:19.614Z,99748.61
2019-03-29T14:28:47.352Z,99746.12
2019-03-29T14:31:15.137Z,99740.13
2019-03-29T14:33:49.429Z,99738.34
2019-03-29T14:36:17.760Z,99732.61
2019-03-29T14:38:45.323Z,99730.16
2019-03-29T14:41:13.024Z,99737.36
2019-03-29T14:43:40.303Z,99724.16
2019-03-29T14:46:07.667Z,99730.53
2019-03-29T14:48:35.146Z,99724.49
2019-03-29T14:51:03.175Z,99725.31
2019-03-29T14:53:30.639Z,99719.31
2019-03-29T14:56:01.465Z,99722.30
2019-03-29T14:58:29.358Z,99713.89
2019-03-29T15:00:56.572Z,99716.75
2019-03-29T15:03:27.394Z,99710.63
2019-03-29T15:05:56.994Z,99703.14
2019-03-29T15:08:24.572Z,99700.62
2019-03-29T15:10:52.124Z,99693.42
2019-03-29T15:13:19.565Z,99705.16
2019-03-29T15:15:46.820Z,99691.77
2019-03-29T15:18:14.312Z,99684.66
2019-03-29T15:20:53.391Z,99685.15
2019-03-29T15:23:14.262Z,99686.02
2019-03-29T15:25:42.543Z,99679.86
2019-03-29T15:28:11.029Z,99683.13
2019-03-29T15:30:38.653Z,99673.64
2019-03-29T15:33:06.818Z,99683.73
2019-03-29T15:35:40.298Z,99672.81
2019-03-29T15:38:09.589Z,99667.84
2019-03-29T15:40:37.155Z,99672.64
2019-03-29T15:43:04.517Z,99670.56
2019-03-29T15:45:32.075Z,99668.82
2019-03-29T15:48:04.708Z,99665.38
2019-03-29T15:50:31.691Z,99661.91
2019-03-29T15:52:59.035Z,99662.51
2019-03-29T15:55:26.582Z,99653.67
2019-03-29T15:57:55.540Z,99656.17
2019-03-29T16:00:22.674Z,99662.55
2019-03-29T16:02:50.055Z,99660.35
2019-03-29T16:05:18.165Z,99658.20
2019-03-29T16:07:45.729Z,99658.39
2019-03-29T16:10:13.524Z,99654.92
2019-03-29T16:12:41.119Z,99653.41
2019-03-29T16:15:08.371Z,99654.80
2019-03-29T16:17:35.703Z,99652.75
2019-03-29T16:20:03.337Z,99650.63
2019-03-29T16:22:30.688Z,99652.09
2019-03-29T16:24:59.008Z,99650.35
2019-03-29T16:27:26.563Z,99647.30
2019-03-29T16:29:54.556Z,99649.91
2019-03-29T16:32:22.966Z,99649.55
2019-03-29T16:34:52.538Z,99643.43
2019-03-29T16:37:56.658Z,99640.79
2019-03-29T16:40:15.460Z,99638.66
2019-03-29T16:42:46.718Z,99637.94
2019-03-29T16:45:14.493Z,99637.69
2019-03-29T16:47:42.615Z,99637.30
2019-03-29T16:50:12.173Z,99632.56
2019-03-29T16:52:39.780Z,99633.88
2019-03-29T16:55:13.702Z,99626.95
2019-03-29T16:57:36.730Z,99632.27
2019-03-29T17:00:06.598Z,99617.78
2019-03-29T17:02:35.434Z,99622.28
2019-03-29T17:05:04.313Z,99618.33
2019-03-29T17:07:34.433Z,99616.25
2019-03-29T17:10:03.792Z,99619.02
2019-03-29T17:12:30.928Z,99618.75
2019-03-29T17:15:00.739Z,99613.13
2019-03-29T17:17:27.988Z,99613.97
2019-03-29T17:19:55.201Z,99610.61
2019-03-29T17:22:22.469Z,99606.34
2019-03-29T17:24:56.918Z,99612.59
2019-03-29T17:27:20.009Z,99614.95
2019-03-29T17:29:48.310Z,99608.53
2019-03-29T17:32:15.533Z,99605.63
2019-03-29T17:34:42.884Z,99606.13
2019-03-29T17:37:11.110Z,99608.88
2019-03-29T17:39:38.406Z,99615.11
2019-03-29T17:42:05.731Z,99610.80
2019-03-29T17:44:32.899Z,99607.39
2019-03-29T17:47:00.219Z,99612.64
2019-03-29T17:49:27.475Z,99602.63
2019-03-29T17:51:55.021Z,99603.17
2019-03-29T17:54:24.019Z,99604.70
2019-03-29T17:56:51.234Z,99605.98
2019-03-29T17:59:18.675Z,99612.75
2019-03-29T18:01:46.024Z,99611.16
2019-03-29T18:04:13.277Z,99605.98
2019-03-29T18:06:40.606Z,99603.91
2019-03-29T18:09:08.266Z,99610.09
2019-03-29T18:11:35.553Z,99610.14
2019-03-29T18:14:03.199Z,99607.55
2019-03-29T18:16:31.302Z,99599.27
2019-03-29T18:19:03.011Z,99608.51
2019-03-29T18:21:30.360Z,99610.70
2019-03-29T18:23:59.493Z,99606.80
2019-03-29T18:26:30.082Z,99613.36
2019-03-29T18:29:04.712Z,99615.09
2019-03-29T18:31:32.285Z,99605.03
2019-03-29T18:34:08.468Z,99608.96
2019-03-29T18:36:36.539Z,99608.09
2019-03-29T18:39:06.196Z,99604.63
2019-03-29T18:41:34.697Z,99608.12
2019-03-29T18:44:02.733Z,99608.98
2019-03-29T18:46:44.042Z,99607.25
2019-03-29T18:49:00.309Z,99607.21
2019-03-29T18:51:31.308Z,99602.42
2019-03-29T18:54:01.482Z,99604.60
2019-03-29T18:56:31.825Z,99605.02
2019-03-29T18:59:02.331Z,99609.37
2019-03-29T19:01:31.860Z,99608.48
2019-03-29T19:04:00.569Z,99604.55
2019-03-29T19:06:30.394Z,99605.42
2019-03-29T19:09:00.045Z,99605.85
2019-03-29T19:11:29.819Z,99609.34
2019-03-29T19:13:59.866Z,99601.03
2019-03-29T19:16:27.400Z,99608.44
2019-03-29T19:19:09.169Z,99604.88
2019-03-29T19:21:25.763Z,99604.86
2019-03-29T19:23:53.209Z,99607.03
2019-03-29T19:26:30.385Z,99609.63
2019-03-29T19:28:57.785Z,99612.23
2019-03-29T19:31:25.485Z,99606.50
2019-03-29T19:33:53.418Z,99603.84
2019-03-29T19:36:20.810Z,99607.25
2019-03-29T19:38:50.758Z,99607.20
2019-03-29T19:41:21.140Z,99609.77
2019-03-29T19:43:51.479Z,99613.20
2019-03-29T19:46:19.294Z,99615.27
2019-03-29T19:48:47.512Z,99617.87
2019-03-29T19:51:14.794Z,99616.52
2019-03-29T19:53:44.872Z,99618.69
2019-03-29T19:56:12.449Z,99613.03
2019-03-29T19:58:39.528Z,99612.64
2019-03-29T20:01:08.809Z,99617.02
2019-03-29T20:03:39.104Z,99619.23
2019-03-29T20:06:06.233Z,99613.13
2019-03-29T20:08:39.020Z,99617.50
2019-03-29T20:11:04.042Z,99615.31
2019-03-29T20:13:34.235Z,99617.39
2019-03-29T20:16:01.400Z,99611.20
2019-03-29T20:18:33.278Z,99616.32
2019-03-29T20:21:00.931Z,99614.06
2019-03-29T20:23:28.200Z,99613.09
2019-03-29T20:25:55.302Z,99616.07
2019-03-29T20:28:24.442Z,99619.98
2019-03-29T20:30:51.806Z,99614.77
2019-03-29T20:33:19.116Z,99610.88
2019-03-29T20:35:50.500Z,99608.33
2019-03-29T20:38:20.754Z,99613.56
2019-03-29T20:40:49.167Z,99615.73
2019-03-29T20:43:17.723Z,99611.37
2019-03-29T20:45:46.746Z,99613.13
2019-03-29T20:48:15.321Z,99603.53
2019-03-29T20:50:44.519Z,99612.66
2019-03-29T20:53:12.632Z,99609.91
2019-03-29T20:55:47.726Z,99610.98
2019-03-29T20:58:15.267Z,99614.78
2019-03-29T21:00:43.459Z,99610.78
2019-03-29T21:03:10.825Z,99608.08
2019-03-29T21:05:38.145Z,99603.20
2019-03-29T21:08:05.353Z,99602.21
2019-03-29T21:10:33.868Z,99606.38
2019-03-29T21:13:00.982Z,99604.92
2019-03-29T21:15:29.302Z,99604.02
2019-03-29T21:17:59.291Z,99597.77
2019-03-29T21:20:26.627Z,99599.79
2019-03-29T21:22:53.958Z,99590.95
2019-03-29T21:25:27.421Z,99590.97
2019-03-29T21:27:58.276Z,99593.17
2019-03-29T21:30:25.527Z,99587.06
2019-03-29T21:32:52.809Z,99588.39
2019-03-29T21:35:21.071Z,99587.04
2019-03-29T21:37:49.945Z,99581.73
2019-03-29T21:40:19.127Z,99587.41
2019-03-29T21:42:46.232Z,99582.62
2019-03-29T21:45:28.097Z,99583.06
2019-03-29T21:48:01.523Z,99581.41
2019-03-29T21:50:20.406Z,99578.38
2019-03-29T21:52:48.027Z,99584.91
2019-03-29T21:56:12.073Z,99580.98
2019-03-29T21:57:54.173Z,99580.04
2019-03-29T22:00:21.482Z,99570.92
2019-03-29T22:02:48.647Z,99579.22
2019-03-29T22:05:15.852Z,99573.19
2019-03-29T22:07:43.089Z,99576.20
2019-03-29T22:10:10.729Z,99569.61
2019-03-29T22:12:38.543Z,99572.06
2019-03-29T22:15:07.853Z,99563.23
2019-03-29T22:17:35.198Z,99560.13
2019-03-29T22:20:02.522Z,99554.57
2019-03-29T22:22:29.610Z,99554.67
2019-03-29T22:25:00.303Z,99549.14
2019-03-29T22:27:31.715Z,99549.08
2019-03-29T22:30:04.713Z,99554.72
2019-03-29T22:32:37.710Z,99542.38
2019-03-29T22:35:10.059Z,99544.11
2019-03-29T22:37:44.023Z,99537.19
2019-03-29T22:40:17.989Z,99544.14
2019-03-29T22:42:46.565Z,99544.98
2019-03-29T22:45:13.769Z,99536.81
2019-03-29T22:47:42.958Z,99548.84
2019-03-29T22:50:10.973Z,99544.05
2019-03-29T22:52:39.383Z,99534.08
2019-03-29T22:55:06.868Z,99535.61
2019-03-29T22:57:37.233Z,99535.89
2019-03-29T23:00:10.045Z,99528.15
2019-03-29T23:02:37.643Z,99519.23
2019-03-29T23:05:17.736Z,99516.77
2019-03-29T23:07:45.218Z,99514.23
2019-03-29T23:10:12.600Z,99511.97
2019-03-29T23:12:39.774Z,99510.56
2019-03-29T23:15:11.220Z,99513.02
2019-03-29T23:17:39.379Z,99512.95
2019-03-29T23:20:06.963Z,99510.72
2019-03-29T23:22:34.830Z,99511.59
2019-03-29T23:25:01.900Z,99511.47
2019-03-29T23:27:31.145Z,99507.48
2019-03-29T23:29:58.340Z,99513.72
2019-03-29T23:32:25.589Z,99515.89
2019-03-29T23:34:52.948Z,99514.57
2019-03-29T23:37:20.241Z,99512.95
2019-03-29T23:39:47.378Z,99507.89
2019-03-29T23:42:14.496Z,99500.53
2019-03-29T23:44:41.603Z,99498.36
2019-03-29T23:47:08.732Z,99500.75
2019-03-29T23:49:35.843Z,99498.63
2019-03-29T23:52:03.104Z,99492.13
2019-03-29T23:54:30.186Z,99489.45
2019-03-29T23:56:57.284Z,99497.15
2019-03-29T23:59:24.393Z,99490.06
